Time;durP1;ratioP1;P1;durP2;ratioP2;P2;SDS_P1;SDS_P2;PMS_P1;PMS_P2;Temp;Humidity;BMP_temperature;BMP_pressure;BME280_temperature;BME280_humidity;BME280_pressure;Samples;Min_cycle;Max_cycle;Signal;HPM_P1;HPM_P2
2023/06/18 07:19:57;;;;;;;12.60;6.15;;;;;;;23.05;44.03;96388.66;2094096;27;20551;-58
2023/06/18 07:22:05;;;;;;;9.60;5.80;;;;;;;22.85;43.08;96388.78;2085209;28;20570;-57
2023/06/18 07:24:08;;;;;;;9.18;6.03;;;;;;;23.43;43.11;96389.31;2085457;28;20560;-58
2023/06/18 07:26:19;;;;;;;10.05;6.15;;;;;;;23.50;42.13;96394.84;2084474;28;21078;-58
2023/06/18 07:28:31;;;;;;;7.97;6.40;;;;;;;23.36;41.28;96391.75;2100976;27;20570;-58
2023/06/18 07:30:47;;;;;;;10.50;6.40;;;;;;;23.41;42.08;96397.44;2099148;27;20574;-57
2023/06/18 07:33:09;;;;;;;8.68;6.35;;;;;;;23.74;40.41;96395.00;2083567;28;21536;-59
2023/06/18 07:34:10;;;;;;;22.58;13.32;;;;;;;23.90;41.27;96390.78;2081846;28;20197;-59
2023/06/18 07:36:24;;;;;;;9.88;6.07;;;;;;;23.90;40.07;96398.78;2084421;28;20587;-58
2023/06/18 07:37:26;;;;;;;11.70;5.80;;;;;;;23.77;40.35;96392.03;2079761;28;20224;-59
2023/06/18 07:39:47;;;;;;;9.60;5.45;;;;;;;23.89;40.12;96392.59;2084797;28;20599;-57
2023/06/18 07:40:50;;;;;;;10.25;6.60;;;;;;;23.96;40.07;96393.69;2083179;28;20200;-57
2023/06/18 07:41:51;;;;;;;8.82;5.65;;;;;;;23.89;39.29;96387.25;2085410;28;20193;-57
2023/06/18 07:44:12;;;;;;;9.43;5.97;;;;;;;24.12;40.42;96384.06;2086262;28;20567;-56
2023/06/18 07:45:13;;;;;;;8.73;6.10;;;;;;;24.13;39.43;96388.41;2079075;28;20205;-57
2023/06/18 07:46:15;;;;;;;8.32;5.53;;;;;;;24.33;39.93;96382.81;2081574;28;20781;-59
2023/06/18 07:47:16;;;;;;;8.85;5.60;;;;;;;24.24;39.97;96380.13;2077481;28;20782;-59
2023/06/18 07:48:18;;;;;;;12.82;5.25;;;;;;;24.37;40.20;96387.69;2069978;28;20194;-59
2023/06/18 07:49:21;;;;;;;7.97;5.30;;;;;;;24.71;39.87;96386.81;2070658;28;20229;-59
2023/06/18 07:50:22;;;;;;;9.32;5.63;;;;;;;24.96;39.23;96386.03;2071368;28;20205;-59
2023/06/18 07:51:24;;;;;;;11.25;5.55;;;;;;;24.77;39.03;96387.97;2070361;28;20195;-59
2023/06/18 07:52:26;;;;;;;12.98;5.93;;;;;;;24.79;39.06;96386.00;2068492;28;20241;-59
2023/06/18 07:53:27;;;;;;;7.97;5.20;;;;;;;24.53;39.58;96383.38;2073132;28;20198;-59
2023/06/18 07:54:30;;;;;;;7.82;5.60;;;;;;;24.53;39.56;96378.06;2070867;28;20297;-59
2023/06/18 07:55:31;;;;;;;7.28;4.95;;;;;;;24.65;39.39;96384.78;2074589;28;20717;-58
2023/06/18 07:56:33;;;;;;;10.55;6.22;;;;;;;24.86;39.87;96389.69;2073372;28;20284;-59
2023/06/18 07:57:35;;;;;;;10.88;5.72;;;;;;;24.94;39.05;96387.00;2069985;28;20315;-59
2023/06/18 07:58:36;;;;;;;9.18;5.63;;;;;;;25.05;38.75;96377.84;2070686;28;20204;-59
2023/06/18 07:59:38;;;;;;;8.68;6.20;;;;;;;25.23;38.22;96387.53;2069982;28;20201;-59
2023/06/18 08:00:39;;;;;;;9.32;5.22;;;;;;;25.10;38.86;96383.53;2071068;28;20210;-59
2023/06/18 08:01:41;;;;;;;9.38;5.95;;;;;;;25.22;39.41;96386.69;2069948;28;20294;-59
2023/06/18 08:02:43;;;;;;;8.20;5.07;;;;;;;25.37;38.98;96386.06;2071890;28;20221;-59
2023/06/18 08:03:45;;;;;;;8.73;5.78;;;;;;;25.15;38.97;96384.88;2071302;28;20213;-59
2023/06/18 08:04:46;;;;;;;7.57;5.80;;;;;;;25.53;38.92;96382.53;2071449;28;20244;-59
2023/06/18 08:05:48;;;;;;;14.60;5.93;;;;;;;25.52;38.48;96384.41;2069643;28;20205;-59
2023/06/18 08:06:50;;;;;;;8.77;5.55;;;;;;;25.45;38.33;96388.75;2071952;28;20206;-59
2023/06/18 08:07:51;;;;;;;10.75;6.38;;;;;;;25.47;38.30;96384.06;2071304;28;20369;-59
2023/06/18 08:08:53;;;;;;;9.35;5.95;;;;;;;25.57;38.49;96381.19;2069673;28;20343;-59
2023/06/18 08:09:54;;;;;;;8.15;5.88;;;;;;;25.79;37.74;96377.00;2067652;28;20201;-59
2023/06/18 08:10:56;;;;;;;10.32;4.68;;;;;;;25.81;37.91;96380.31;2073301;28;20200;-60
2023/06/18 08:11:57;;;;;;;9.90;5.38;;;;;;;25.88;37.84;96385.84;2071656;28;20593;-59
2023/06/18 08:13:00;;;;;;;10.13;5.50;;;;;;;25.56;37.60;96375.03;2070738;28;20230;-57
2023/06/18 08:14:03;;;;;;;10.63;5.90;;;;;;;25.55;37.52;96378.69;2071930;28;20244;-57
2023/06/18 08:15:05;;;;;;;8.35;5.80;;;;;;;25.72;37.21;96374.16;2070073;28;20194;-57
2023/06/18 08:16:07;;;;;;;9.07;6.20;;;;;;;25.77;37.42;96380.84;2070105;28;20257;-57
2023/06/18 08:17:09;;;;;;;9.45;5.97;;;;;;;25.58;37.47;96377.53;2068822;28;20221;-60
2023/06/18 08:18:10;;;;;;;11.48;7.00;;;;;;;25.70;38.22;96378.00;2067254;28;20284;-59
2023/06/18 08:19:12;;;;;;;9.80;7.10;;;;;;;25.88;37.58;96386.66;2071920;28;20197;-58
2023/06/18 08:20:13;;;;;;;10.00;6.05;;;;;;;25.88;37.83;96375.97;2071367;28;20222;-58
2023/06/18 08:21:15;;;;;;;8.63;5.55;;;;;;;26.10;36.59;96381.59;2069574;28;20194;-57
2023/06/18 08:22:17;;;;;;;10.82;6.03;;;;;;;26.15;36.48;96379.25;2070766;28;20203;-57
2023/06/18 08:23:18;;;;;;;6.90;4.85;;;;;;;25.91;36.41;96386.34;2074547;28;20268;-57
2023/06/18 08:24:20;;;;;;;7.55;5.53;;;;;;;25.86;36.70;96383.31;2072578;28;20245;-57
2023/06/18 08:25:21;;;;;;;8.10;5.75;;;;;;;25.94;36.29;96382.47;2067680;28;20881;-57
2023/06/18 08:26:23;;;;;;;12.18;5.47;;;;;;;25.75;36.12;96379.16;2066892;28;20205;-57
2023/06/18 08:27:24;;;;;;;6.60;5.07;;;;;;;25.70;36.16;96375.31;2071935;28;20226;-57
2023/06/18 08:28:26;;;;;;;10.77;5.15;;;;;;;25.77;35.60;96380.84;2071615;28;20198;-58
2023/06/18 08:29:28;;;;;;;9.52;5.53;;;;;;;25.94;36.26;96377.13;2072725;28;20197;-57
2023/06/18 08:30:30;;;;;;;6.75;5.22;;;;;;;26.31;35.33;96378.34;2071155;28;20209;-57
2023/06/18 08:31:31;;;;;;;9.52;5.18;;;;;;;26.31;35.69;96372.16;2068889;28;20202;-58
2023/06/18 08:32:33;;;;;;;8.65;5.93;;;;;;;26.04;36.14;96375.09;2079299;28;20240;-59
2023/06/18 08:33:35;;;;;;;8.70;5.38;;;;;;;26.17;36.45;96377.25;2075111;28;20220;-58
2023/06/18 08:34:42;;;;;;;10.80;5.45;;;;;;;26.03;36.86;96370.75;2067160;28;20202;-58
2023/06/18 08:35:43;;;;;;;6.97;5.07;;;;;;;26.23;36.80;96376.56;2073517;28;20205;-58
2023/06/18 08:36:47;;;;;;;7.38;5.18;;;;;;;26.38;36.24;96373.13;2069111;28;20194;-59
2023/06/18 08:37:48;;;;;;;6.97;5.15;;;;;;;26.31;36.22;96367.66;2069237;28;20305;-58
2023/06/18 08:38:50;;;;;;;8.05;5.50;;;;;;;26.15;36.57;96368.53;2069753;28;20333;-57
2023/06/18 08:39:51;;;;;;;6.93;5.43;;;;;;;26.00;36.28;96364.91;2067485;28;20214;-58
2023/06/18 08:41:02;;;;;;;7.85;5.57;;;;;;;26.19;36.43;96371.72;2065640;28;20285;-57
2023/06/18 08:42:05;;;;;;;8.95;5.43;;;;;;;26.55;36.06;96372.06;2072545;28;20581;-58
2023/06/18 08:43:10;;;;;;;11.30;5.43;;;;;;;26.80;35.52;96369.25;2070029;28;20191;-58
2023/06/18 08:44:12;;;;;;;7.28;5.60;;;;;;;26.95;35.22;96369.31;2067737;28;20210;-58
2023/06/18 08:45:13;;;;;;;8.13;5.13;;;;;;;26.66;35.47;96364.63;2070143;28;20317;-58
2023/06/18 08:46:16;;;;;;;7.88;5.32;;;;;;;26.49;35.43;96366.56;2070093;28;20202;-59
2023/06/18 08:47:18;;;;;;;10.95;5.30;;;;;;;26.38;36.12;96362.44;2068398;28;20668;-58
2023/06/18 08:48:27;;;;;;;7.18;5.25;;;;;;;26.49;35.67;96366.56;2070421;28;20630;-58
2023/06/18 08:49:33;;;;;;;10.00;5.72;;;;;;;26.48;35.26;96364.91;2066837;28;20653;-57
2023/06/18 08:50:38;;;;;;;8.73;5.18;;;;;;;26.60;35.38;96368.00;2070918;28;20205;-58
2023/06/18 08:51:40;;;;;;;7.80;5.60;;;;;;;26.61;35.35;96367.81;2071678;28;20202;-58
2023/06/18 08:52:48;;;;;;;8.85;5.80;;;;;;;26.64;34.88;96366.63;2070960;28;20744;-57
2023/06/18 08:54:08;;;;;;;9.65;5.57;;;;;;;26.41;35.89;96370.13;2072221;28;20660;-58
2023/06/18 08:55:13;;;;;;;7.70;5.25;;;;;;;26.64;35.92;96367.47;2070570;28;20205;-58
2023/06/18 08:56:21;;;;;;;10.07;5.45;;;;;;;26.32;35.79;96363.97;2072503;28;20205;-58
2023/06/18 08:57:43;;;;;;;8.93;5.40;;;;;;;26.72;35.86;96371.94;2070673;28;20222;-59
2023/06/18 08:58:51;;;;;;;7.88;5.40;;;;;;;26.39;36.34;96372.13;2068844;28;20209;-59
2023/06/18 08:59:54;;;;;;;9.45;5.65;;;;;;;26.75;36.05;96368.13;2067734;28;20255;-58
2023/06/18 09:00:55;;;;;;;7.65;4.80;;;;;;;26.92;35.53;96369.69;2064468;28;20207;-59
2023/06/18 09:01:58;;;;;;;9.13;4.65;;;;;;;26.93;35.41;96371.34;2061242;28;20353;-59
2023/06/18 09:03:00;;;;;;;10.02;5.95;;;;;;;26.98;35.15;96373.47;2063223;28;20602;-58
2023/06/18 09:04:02;;;;;;;7.85;5.43;;;;;;;27.35;34.72;96364.66;2066896;28;20295;-58
2023/06/18 09:05:05;;;;;;;9.02;5.47;;;;;;;27.52;35.87;96364.53;2066167;28;20218;-58
2023/06/18 09:06:07;;;;;;;8.13;5.80;;;;;;;27.27;35.24;96369.25;2065555;28;20599;-58
2023/06/18 09:07:09;;;;;;;9.82;6.47;;;;;;;27.65;35.96;96353.19;2063699;28;20725;-58
2023/06/18 09:08:11;;;;;;;36.10;25.88;;;;;;;28.25;35.23;96359.41;2068659;28;20194;-58
2023/06/18 09:09:12;;;;;;;6.95;5.18;;;;;;;28.33;34.66;96362.00;2063305;28;20476;-59
2023/06/18 09:10:14;;;;;;;6.75;5.00;;;;;;;27.64;35.00;96355.03;2065457;28;20845;-58
2023/06/18 09:11:17;;;;;;;7.78;4.60;;;;;;;27.60;35.30;96367.13;2068167;28;20252;-58
2023/06/18 09:12:18;;;;;;;7.78;5.28;;;;;;;27.45;35.18;96360.91;2066667;28;20428;-58
2023/06/18 09:13:20;;;;;;;7.35;5.35;;;;;;;27.51;35.53;96362.88;2066700;28;20240;-58
2023/06/18 09:14:23;;;;;;;10.70;4.97;;;;;;;27.35;35.27;96363.81;2066430;28;20199;-58
2023/06/18 09:15:25;;;;;;;8.55;6.07;;;;;;;27.21;36.27;96362.75;2066811;28;20345;-58
2023/06/18 09:16:27;;;;;;;7.80;5.30;;;;;;;27.42;35.81;96361.28;2066843;28;20194;-58
2023/06/18 09:17:29;;;;;;;7.95;5.55;;;;;;;27.44;34.94;96361.91;2068431;28;20233;-58
2023/06/18 09:18:31;;;;;;;7.03;5.30;;;;;;;26.98;35.18;96357.41;2068715;28;20877;-58
2023/06/18 09:19:33;;;;;;;9.02;5.35;;;;;;;26.73;35.59;96354.91;2066065;28;20311;-58
2023/06/18 09:20:36;;;;;;;7.90;4.60;;;;;;;27.28;36.03;96358.34;2065704;28;20202;-58
2023/06/18 09:21:39;;;;;;;9.80;5.60;;;;;;;27.55;35.44;96358.78;2066861;28;20206;-58
2023/06/18 09:22:48;;;;;;;6.90;5.25;;;;;;;27.63;34.57;96357.88;2066965;28;20237;-58
2023/06/18 09:23:55;;;;;;;14.15;5.30;;;;;;;27.26;34.98;96356.84;2066841;28;20293;-58
2023/06/18 09:24:58;;;;;;;13.65;4.72;;;;;;;27.49;34.60;96355.00;2060801;28;20234;-58
2023/06/18 09:26:01;;;;;;;8.13;4.75;;;;;;;27.58;34.47;96339.69;2064432;28;20197;-58
2023/06/18 09:27:05;;;;;;;9.50;5.82;;;;;;;27.44;34.90;96357.41;2069085;28;20205;-58
2023/06/18 09:28:07;;;;;;;8.30;4.80;;;;;;;27.37;34.28;96351.88;2068922;28;20198;-58
2023/06/18 09:29:10;;;;;;;6.85;5.47;;;;;;;27.33;34.32;96347.09;2068411;28;20197;-59
2023/06/18 09:30:25;;;;;;;7.13;5.57;;;;;;;28.05;34.33;96351.09;2065186;28;20230;-58
2023/06/18 09:31:27;;;;;;;10.60;5.70;;;;;;;28.01;34.19;96345.25;2065271;28;20202;-58
2023/06/18 09:32:28;;;;;;;8.52;5.13;;;;;;;27.98;33.65;96350.13;2065735;28;20230;-59
2023/06/18 09:33:34;;;;;;;7.40;4.60;;;;;;;27.80;33.75;96350.50;2067344;28;20677;-58
2023/06/18 09:34:38;;;;;;;8.07;4.95;;;;;;;27.61;33.17;96347.34;2066416;28;20630;-59
2023/06/18 09:35:40;;;;;;;7.90;4.95;;;;;;;27.10;33.80;96347.13;2068336;28;20292;-58
2023/06/18 09:36:42;;;;;;;6.93;4.85;;;;;;;26.86;34.08;96355.16;2067198;28;20233;-60
2023/06/18 09:37:45;;;;;;;6.65;4.82;;;;;;;27.32;33.69;96343.56;2065187;28;20337;-60
2023/06/18 09:38:46;;;;;;;7.93;5.10;;;;;;;27.52;33.82;96353.81;2064227;28;20261;-60
2023/06/18 09:39:51;;;;;;;9.68;5.72;;;;;;;27.66;33.83;96352.16;2064798;28;20222;-61
2023/06/18 09:40:53;;;;;;;7.60;4.70;;;;;;;28.05;32.97;96342.19;2068769;28;20225;-61
2023/06/18 09:41:55;;;;;;;8.30;5.28;;;;;;;28.37;33.82;96348.19;2069559;28;20190;-60
2023/06/18 09:43:00;;;;;;;7.90;5.00;;;;;;;28.47;33.30;96348.75;2066677;28;20227;-60
2023/06/18 09:44:03;;;;;;;6.45;4.85;;;;;;;28.22;33.36;96350.91;2067068;28;20283;-60
2023/06/18 09:45:05;;;;;;;7.32;4.60;;;;;;;27.83;32.72;96350.97;2068131;28;20259;-59
2023/06/18 09:46:07;;;;;;;10.48;4.40;;;;;;;27.86;33.58;96345.25;2066888;28;20202;-60
2023/06/18 09:47:12;;;;;;;6.85;4.32;;;;;;;28.02;33.52;96343.38;2066056;28;20198;-59
2023/06/18 09:48:14;;;;;;;8.45;4.72;;;;;;;28.21;33.40;96346.56;2067668;28;20337;-58
2023/06/18 09:49:19;;;;;;;8.77;5.35;;;;;;;28.24;32.25;96351.53;2065887;28;20749;-58
2023/06/18 09:50:25;;;;;;;7.20;5.25;;;;;;;28.08;32.46;96345.34;2064430;28;20633;-60
2023/06/18 09:51:30;;;;;;;5.97;4.60;;;;;;;28.01;33.89;96336.34;2063438;28;20427;-59
2023/06/18 09:52:40;;;;;;;7.30;4.22;;;;;;;28.19;32.67;96338.69;2065223;28;20230;-59
2023/06/18 09:53:42;;;;;;;7.95;4.47;;;;;;;28.47;31.77;96343.38;2068508;28;20217;-59
2023/06/18 09:54:44;;;;;;;8.95;4.65;;;;;;;28.39;32.09;96338.94;2064491;28;20241;-59
2023/06/18 09:55:45;;;;;;;7.55;4.60;;;;;;;28.50;31.65;96338.44;2068574;28;20193;-60
2023/06/18 09:56:59;;;;;;;5.75;4.55;;;;;;;28.89;32.31;96343.63;2065298;28;20290;-58
2023/06/18 09:58:00;;;;;;;7.65;4.40;;;;;;;28.99;32.56;96350.34;2063867;28;20226;-58
2023/06/18 09:59:03;;;;;;;7.03;4.90;;;;;;;28.92;33.19;96344.06;2065286;28;20202;-58
2023/06/18 10:00:12;;;;;;;6.68;4.80;;;;;;;28.90;31.98;96342.59;2056348;28;20203;-57
2023/06/18 10:01:14;;;;;;;7.95;5.00;;;;;;;28.22;31.73;96337.47;2064565;28;20332;-58
2023/06/18 10:02:25;;;;;;;6.97;4.55;;;;;;;28.45;32.69;96338.16;2064525;28;20194;-58
2023/06/18 10:03:27;;;;;;;5.53;4.05;;;;;;;28.41;32.21;96334.19;2067854;28;20262;-58
2023/06/18 10:04:29;;;;;;;8.65;5.55;;;;;;;28.43;32.77;96344.75;2067181;28;20262;-58
2023/06/18 10:05:31;;;;;;;5.90;4.20;;;;;;;28.54;32.54;96340.75;2066500;28;20238;-60
2023/06/18 10:06:33;;;;;;;6.25;4.43;;;;;;;28.02;32.50;96333.50;2063232;28;20222;-60
2023/06/18 10:07:35;;;;;;;10.57;4.97;;;;;;;27.69;32.92;96335.69;2062025;28;20327;-59
2023/06/18 10:08:38;;;;;;;8.23;5.75;;;;;;;28.12;33.05;96329.72;2062327;28;20261;-59
2023/06/18 10:09:41;;;;;;;9.48;5.38;;;;;;;28.62;31.72;96335.25;2063390;28;20209;-59
2023/06/18 10:10:43;;;;;;;7.22;4.20;;;;;;;28.23;31.87;96328.41;2061448;28;20827;-60
2023/06/18 10:11:48;;;;;;;7.25;5.15;;;;;;;28.07;33.24;96329.44;2063279;28;20196;-60
2023/06/18 10:12:53;;;;;;;5.32;3.90;;;;;;;28.99;32.78;96330.72;2066541;28;20689;-60
2023/06/18 10:14:08;;;;;;;7.43;5.10;;;;;;;29.56;32.06;96326.25;2064623;28;20199;-59
2023/06/18 10:15:14;;;;;;;4.80;3.72;;;;;;;29.54;31.49;96325.59;2063239;28;20261;-60
2023/06/18 10:16:18;;;;;;;10.85;4.70;;;;;;;29.97;31.11;96336.25;2063230;28;20275;-60
2023/06/18 10:17:25;;;;;;;7.65;4.22;;;;;;;29.47;31.27;96325.56;2061277;28;20226;-60
2023/06/18 10:18:27;;;;;;;13.00;5.25;;;;;;;29.65;31.48;96325.06;2061196;28;20206;-60
2023/06/18 10:19:39;;;;;;;6.63;4.70;;;;;;;30.04;30.49;96330.91;2067557;28;20604;-60
2023/06/18 10:20:42;;;;;;;6.40;4.65;;;;;;;29.36;31.12;96328.78;2069035;28;20532;-60
2023/06/18 10:22:06;;;;;;;5.70;4.60;;;;;;;29.44;31.39;96327.81;2067734;28;20240;-60
2023/06/18 10:23:08;;;;;;;7.07;5.30;;;;;;;29.12;31.26;96335.38;2066593;28;20455;-59
2023/06/18 10:24:16;;;;;;;8.95;5.28;;;;;;;28.71;32.00;96330.63;2065375;28;20224;-60
2023/06/18 10:25:18;;;;;;;10.73;4.20;;;;;;;28.33;31.75;96321.72;2063844;28;20770;-60
2023/06/18 10:26:21;;;;;;;6.25;4.60;;;;;;;28.77;32.05;96335.25;2060437;28;20199;-60
2023/06/18 10:27:27;;;;;;;7.00;4.40;;;;;;;29.36;31.05;96339.53;2058912;28;20312;-60
2023/06/18 10:28:30;;;;;;;8.80;4.37;;;;;;;29.94;30.99;96333.13;2061033;28;20908;-60
2023/06/18 10:29:34;;;;;;;6.50;4.53;;;;;;;30.27;30.06;96330.59;2067770;28;20554;-60
2023/06/18 10:30:37;;;;;;;7.50;4.27;;;;;;;29.95;30.05;96334.78;2065927;28;20440;-60
2023/06/18 10:31:39;;;;;;;10.77;4.90;;;;;;;30.20;29.70;96339.69;2066618;28;20423;-60
2023/06/18 10:32:43;;;;;;;4.93;3.90;;;;;;;29.86;30.10;96334.06;2064155;28;20522;-60
2023/06/18 10:33:46;;;;;;;6.73;4.90;;;;;;;30.09;29.59;96333.00;2063684;28;20503;-60
2023/06/18 10:34:48;;;;;;;10.67;4.90;;;;;;;29.78;29.98;96334.25;2067235;28;20506;-60
2023/06/18 10:35:50;;;;;;;7.43;4.30;;;;;;;30.09;30.33;96330.28;2067848;28;20431;-61
2023/06/18 10:36:54;;;;;;;7.13;4.50;;;;;;;29.61;30.46;96326.47;2066570;28;20459;-60
2023/06/18 10:37:57;;;;;;;8.33;4.50;;;;;;;29.42;31.03;96324.47;2059609;28;20958;-63
2023/06/18 10:39:00;;;;;;;6.27;4.73;;;;;;;29.11;30.74;96323.78;2060288;28;20731;-60
2023/06/18 10:40:05;;;;;;;6.33;4.80;;;;;;;28.98;31.42;96321.00;2062973;28;20471;-63
2023/06/18 10:41:11;;;;;;;10.40;4.80;;;;;;;29.05;31.50;96316.50;2068616;28;20438;-61
2023/06/18 10:42:15;;;;;;;6.20;4.80;;;;;;;29.03;31.39;96320.38;2067697;28;20456;-61
2023/06/18 10:43:16;;;;;;;8.30;4.90;;;;;;;28.97;31.29;96322.00;2067170;28;20436;-60
2023/06/18 10:44:33;;;;;;;10.17;4.17;;;;;;;29.05;30.70;96321.03;2065434;28;20891;-61
2023/06/18 10:45:34;;;;;;;6.70;4.00;;;;;;;29.13;31.59;96324.44;2058700;28;20846;-61
2023/06/18 10:46:36;;;;;;;6.07;4.00;;;;;;;29.54;31.41;96319.41;2059105;28;20428;-61
2023/06/18 10:47:38;;;;;;;5.97;4.10;;;;;;;29.45;31.39;96311.47;2063355;28;20509;-60
2023/06/18 10:48:40;;;;;;;8.60;4.33;;;;;;;29.79;30.64;96312.53;2064315;28;20808;-61
2023/06/18 10:50:02;;;;;;;5.10;3.97;;;;;;;29.97;29.89;96314.72;2062749;28;20508;-60
2023/06/18 10:51:32;;;;;;;4.90;3.77;;;;;;;29.58;31.29;96305.34;2065186;28;20931;-60
2023/06/18 10:52:36;;;;;;;9.17;4.43;;;;;;;29.68;30.46;96315.75;2061757;28;20526;-61
2023/06/18 10:53:37;;;;;;;6.67;4.23;;;;;;;29.17;31.28;96309.56;2062160;28;20486;-61
2023/06/18 10:54:40;;;;;;;6.47;4.77;;;;;;;29.42;31.63;96308.34;2066734;28;20481;-61
2023/06/18 10:55:41;;;;;;;6.03;4.20;;;;;;;28.69;31.27;96308.50;2066226;28;20477;-60
2023/06/18 10:57:09;;;;;;;5.67;4.57;;;;;;;28.88;30.81;96302.50;2066243;28;20447;-61
2023/06/18 10:58:11;;;;;;;8.00;4.03;;;;;;;29.48;31.03;96305.72;2063073;28;20463;-61
2023/06/18 10:59:12;;;;;;;7.07;4.37;;;;;;;29.56;30.14;96307.41;2060930;28;20436;-61
2023/06/18 11:00:29;;;;;;;6.70;4.80;;;;;;;30.22;30.53;96300.75;2063987;28;20436;-61
2023/06/18 11:01:31;;;;;;;12.20;4.30;;;;;;;30.15;29.29;96310.66;2063166;28;20431;-61
2023/06/18 11:02:36;;;;;;;6.87;4.40;;;;;;;29.05;31.11;96304.91;2064967;28;20517;-61
2023/06/18 11:03:39;;;;;;;12.60;4.23;;;;;;;28.34;31.06;96299.22;2063939;28;20455;-60
2023/06/18 11:04:41;;;;;;;12.63;4.05;;;;;;;29.28;32.04;96312.78;2066642;28;20427;-61
2023/06/18 11:05:44;;;;;;;6.83;4.53;;;;;;;29.57;30.88;96292.09;2066270;28;20213;-61
2023/06/18 11:06:47;;;;;;;7.97;5.03;;;;;;;30.45;30.71;96304.97;2068355;28;20659;-61
2023/06/18 11:08:02;;;;;;;7.65;4.60;;;;;;;30.16;29.69;96306.09;2066881;28;20288;-61
2023/06/18 11:09:13;;;;;;;7.23;4.40;;;;;;;29.64;30.32;96303.75;2064578;28;20239;-61
2023/06/18 11:10:31;;;;;;;7.47;3.83;;;;;;;29.64;29.78;96301.06;2066854;28;20434;-61
2023/06/18 11:11:33;;;;;;;7.03;4.83;;;;;;;29.56;30.70;96299.34;2062828;28;20895;-61
2023/06/18 11:12:37;;;;;;;7.63;4.93;;;;;;;29.65;30.84;96300.03;2061446;28;20472;-61
2023/06/18 11:13:41;;;;;;;6.55;4.60;;;;;;;29.71;31.10;96306.47;2062924;28;20462;-61
2023/06/18 11:14:42;;;;;;;6.17;4.17;;;;;;;29.70;30.77;96300.25;2063339;28;20217;-61
2023/06/18 11:15:56;;;;;;;6.90;4.23;;;;;;;29.53;30.41;96304.28;2066203;28;20786;-61
2023/06/18 11:17:15;;;;;;;9.40;5.57;;;;;;;29.67;30.21;96297.13;2064965;28;20456;-61
2023/06/18 11:18:17;;;;;;;9.30;4.85;;;;;;;30.75;30.36;96300.13;2065975;28;20540;-61
2023/06/18 11:19:19;;;;;;;8.70;4.77;;;;;;;31.15;29.23;96293.09;2065772;28;20229;-61
2023/06/18 11:20:23;;;;;;;8.03;4.43;;;;;;;31.18;29.29;96298.91;2067764;28;20424;-61
2023/06/18 11:21:24;;;;;;;5.27;4.13;;;;;;;30.91;28.81;96292.66;2066643;28;20454;-61
2023/06/18 11:22:30;;;;;;;7.27;4.90;;;;;;;30.22;29.60;96291.84;2061451;28;20476;-61
2023/06/18 11:23:32;;;;;;;10.10;5.27;;;;;;;30.30;30.28;96288.97;2060189;28;20436;-61
2023/06/18 11:24:34;;;;;;;6.47;4.40;;;;;;;30.33;30.63;96290.44;2064920;28;20918;-61
2023/06/18 11:25:36;;;;;;;9.00;4.87;;;;;;;30.44;29.83;96290.66;2065077;28;20463;-61
2023/06/18 11:26:37;;;;;;;7.83;4.77;;;;;;;30.36;29.81;96290.00;2062780;28;20512;-61
2023/06/18 11:27:45;;;;;;;10.43;6.17;;;;;;;30.62;30.39;96290.13;2063676;28;20472;-61
2023/06/18 11:28:47;;;;;;;9.20;6.43;;;;;;;29.92;30.47;96289.44;2062301;28;20506;-62
2023/06/18 11:29:48;;;;;;;16.43;11.30;;;;;;;29.87;30.28;96289.19;2067645;28;20431;-61
2023/06/18 11:30:52;;;;;;;9.77;7.53;;;;;;;29.65;30.80;96281.19;2066401;28;20427;-62
2023/06/18 11:31:53;;;;;;;5.30;4.03;;;;;;;29.97;30.80;96286.97;2064246;28;20924;-62
2023/06/18 11:32:55;;;;;;;5.00;4.10;;;;;;;29.98;30.30;96280.56;2062600;28;20629;-62
2023/06/18 11:33:56;;;;;;;7.20;4.57;;;;;;;30.05;30.66;96280.59;2061882;28;20425;-61
2023/06/18 11:34:59;;;;;;;9.87;5.50;;;;;;;29.77;30.44;96278.78;2063786;28;20481;-62
2023/06/18 11:36:12;;;;;;;8.10;4.53;;;;;;;30.04;30.25;96266.31;2064088;28;20835;-62
2023/06/18 11:37:15;;;;;;;5.53;4.10;;;;;;;30.82;29.74;96270.47;2062062;28;20427;-61
2023/06/18 11:38:18;;;;;;;6.73;4.30;;;;;;;31.48;29.53;96273.38;2063524;28;20423;-62
2023/06/18 11:39:20;;;;;;;8.20;4.30;;;;;;;31.19;29.05;96276.31;2065011;28;20810;-62
2023/06/18 11:40:21;;;;;;;5.83;4.20;;;;;;;30.59;29.53;96270.88;2066902;28;20424;-61
2023/06/18 11:41:24;;;;;;;7.20;4.50;;;;;;;30.64;29.57;96271.09;2075184;28;20434;-61
2023/06/18 11:42:26;;;;;;;6.50;4.03;;;;;;;31.22;29.94;96267.81;2067350;28;20481;-62
2023/06/18 11:43:46;;;;;;;8.10;4.60;;;;;;;31.39;29.07;96264.69;2064824;28;20470;-62
2023/06/18 11:44:50;;;;;;;8.40;5.10;;;;;;;31.15;29.66;96263.44;2066207;28;20474;-61
2023/06/18 11:45:53;;;;;;;7.50;4.10;;;;;;;31.31;29.14;96260.31;2064723;28;20515;-61
2023/06/18 11:46:55;;;;;;;6.63;4.40;;;;;;;32.16;29.91;96266.78;2063471;28;20436;-60
2023/06/18 11:47:56;;;;;;;7.60;4.00;;;;;;;32.78;28.86;96259.00;2061699;28;20460;-59
2023/06/18 11:48:59;;;;;;;5.70;4.40;;;;;;;32.24;28.73;96253.88;2061434;28;20486;-59
2023/06/18 11:50:01;;;;;;;5.20;3.87;;;;;;;31.07;28.76;96267.19;2062431;28;20439;-59
2023/06/18 11:51:03;;;;;;;5.47;4.43;;;;;;;30.41;29.89;96257.94;2068258;28;20428;-60
2023/06/18 11:52:05;;;;;;;6.10;4.43;;;;;;;29.58;30.47;96261.50;2066648;28;20433;-61
2023/06/18 11:53:06;;;;;;;6.47;5.00;;;;;;;30.05;30.42;96256.38;2064904;28;20481;-61
2023/06/18 11:54:08;;;;;;;4.80;4.10;;;;;;;29.67;30.46;96265.69;2063405;28;20423;-62
2023/06/18 11:55:10;;;;;;;5.03;3.90;;;;;;;29.21;30.64;96258.13;2061897;28;20431;-61
2023/06/18 11:56:11;;;;;;;6.50;4.40;;;;;;;29.95;29.81;96249.50;2066445;28;20925;-61
2023/06/18 11:57:14;;;;;;;6.80;4.63;;;;;;;30.57;29.31;96243.28;2062714;28;20886;-62
2023/06/18 11:58:16;;;;;;;6.03;4.13;;;;;;;30.32;29.31;96249.19;2061556;28;20444;-61
2023/06/18 11:59:19;;;;;;;5.80;4.47;;;;;;;30.78;29.03;96245.81;2067300;28;20432;-61
2023/06/18 12:00:20;;;;;;;9.43;4.53;;;;;;;30.25;29.67;96243.00;2065435;28;20427;-61
2023/06/18 12:01:29;;;;;;;7.10;4.97;;;;;;;30.70;30.16;96248.72;2067096;28;20429;-61
2023/06/18 12:02:31;;;;;;;6.60;4.87;;;;;;;31.27;30.82;96243.75;2063800;28;20495;-61
2023/06/18 12:03:34;;;;;;;5.97;4.70;;;;;;;32.28;29.86;96243.50;2062566;28;20450;-61
2023/06/18 12:04:36;;;;;;;7.73;5.10;;;;;;;32.39;27.94;96247.38;2062010;28;20427;-62
2023/06/18 12:05:39;;;;;;;5.87;3.80;;;;;;;31.02;29.45;96251.63;2063518;28;20450;-64
2023/06/18 12:06:40;;;;;;;5.73;4.30;;;;;;;30.64;29.72;96246.00;2063732;28;20433;-62
2023/06/18 12:07:42;;;;;;;6.90;5.03;;;;;;;30.33;29.60;96240.09;2066628;28;20471;-61
2023/06/18 12:08:45;;;;;;;5.80;4.27;;;;;;;30.50;30.08;96232.50;2065063;28;20506;-62
2023/06/18 12:09:49;;;;;;;53.00;41.70;;;;;;;31.85;28.64;96238.66;2063459;28;20436;-61
2023/06/18 12:10:51;;;;;;;7.73;4.97;;;;;;;32.02;28.46;96233.59;2059973;28;20492;-60
2023/06/18 12:12:22;;;;;;;10.40;6.50;;;;;;;33.01;28.84;96244.06;2060500;28;20432;-60
2023/06/18 12:13:37;;;;;;;8.60;4.00;;;;;;;32.87;28.45;96236.06;2060999;28;20468;-60
2023/06/18 12:14:54;;;;;;;6.00;4.40;;;;;;;33.67;27.91;96244.50;2062622;28;20524;-60
2023/06/18 12:16:09;;;;;;;14.23;4.40;;;;;;;33.38;26.86;96241.47;2062766;28;20444;-59
2023/06/18 12:17:37;;;;;;;5.60;4.17;;;;;;;34.07;27.16;96243.22;2063123;28;20436;-59
2023/06/18 12:18:43;;;;;;;4.60;3.87;;;;;;;33.95;27.00;96244.00;2067621;28;20946;-59
2023/06/18 12:19:48;;;;;;;4.90;4.27;;;;;;;34.48;26.75;96244.41;2061316;28;20834;-59
2023/06/18 12:20:50;;;;;;;5.03;4.20;;;;;;;34.03;26.01;96240.19;2060385;28;20424;-59
2023/06/18 12:21:51;;;;;;;4.50;3.87;;;;;;;33.93;26.24;96232.59;2067484;28;20439;-59
2023/06/18 12:22:53;;;;;;;5.43;4.00;;;;;;;34.37;27.32;96232.44;2064972;28;20455;-60
2023/06/18 12:23:58;;;;;;;6.10;4.20;;;;;;;34.05;26.09;96224.50;2061696;28;20532;-59
2023/06/18 12:25:00;;;;;;;4.97;4.30;;;;;;;32.77;27.17;96235.72;2062990;28;20925;-59
2023/06/18 12:26:02;;;;;;;8.23;5.00;;;;;;;32.04;28.52;96226.13;2064212;28;20482;-59
2023/06/18 12:27:04;;;;;;;8.33;4.00;;;;;;;32.52;28.84;96233.78;2062399;28;20419;-59
2023/06/18 12:28:06;;;;;;;8.20;4.10;;;;;;;31.48;27.94;96231.06;2064136;28;21112;-59
2023/06/18 12:29:08;;;;;;;7.67;3.97;;;;;;;31.02;29.22;96234.59;2063598;28;20547;-59
2023/06/18 12:30:11;;;;;;;5.20;4.30;;;;;;;31.87;28.72;96225.78;2060493;28;20421;-59
2023/06/18 12:31:13;;;;;;;7.97;4.40;;;;;;;33.14;28.89;96235.00;2063883;28;20482;-59